Wetmore, Colorado
Current Conditions -  °F | °C
As of 2:15 AM on Monday 24 Nov 2014 (Local Time) from K1V6 Reporting Station
Clear Clear  
Wind Chill: 21°   Ceiling: Unl
Heat Index: 32°   Visibility: 10mi
Dew Point:   Wind: 16mph
Humidity: 35%   Direction: 260°W
Pressure: 29.91"   Gusts: 25mph
Location:  38.24°N, 105.09°W
Report Text: K1V6 240915Z AUTO 26014G22KT 10SM CLR 00/M14 A2991 RMK AO2
Loading
Personal Weather Stations






























Interactive Weather Map New forecast layout! Learn more

10-Day Weather Forecast

Advertisements
Track Severe Weather on mobile